Time;durP1;ratioP1;P1;durP2;ratioP2;P2;SDS_P1;SDS_P2;PMS_P1;PMS_P2;Temp;Humidity;BMP_temperature;BMP_pressure;BME280_temperature;BME280_humidity;BME280_pressure;Samples;Min_cycle;Max_cycle;Signal;HPM_P1;HPM_P2
2022/09/14 00:00:46;;;;;;;0.80;0.80;;;18.90;99.90;;;;;;5016474;28;20178;-72
2022/09/14 00:03:13;;;;;;;0.60;0.53;;;18.90;99.90;;;;;;5016563;28;20245;-72
2022/09/14 00:05:38;;;;;;;0.90;0.90;;;19.00;99.90;;;;;;5016653;28;20771;-71
2022/09/14 00:08:04;;;;;;;0.87;0.87;;;19.00;99.90;;;;;;5016734;28;20424;-71
2022/09/14 00:10:30;;;;;;;1.00;1.00;;;18.90;99.90;;;;;;5016396;28;20226;-70
2022/09/14 00:12:56;;;;;;;1.10;1.03;;;18.90;99.90;;;;;;5016645;28;20179;-70
2022/09/14 00:15:22;;;;;;;0.67;0.67;;;18.80;99.90;;;;;;5015084;28;20202;-72
2022/09/14 00:17:48;;;;;;;0.90;0.80;;;18.90;99.90;;;;;;5016224;28;20927;-71
2022/09/14 00:20:14;;;;;;;0.70;0.70;;;18.90;99.90;;;;;;5014917;28;20679;-71
2022/09/14 00:22:40;;;;;;;0.93;0.80;;;18.90;99.90;;;;;;5016301;28;20441;-70
2022/09/14 00:25:06;;;;;;;0.53;0.50;;;18.90;99.90;;;;;;5016351;28;20227;-71
2022/09/14 00:27:32;;;;;;;0.67;0.67;;;19.20;99.90;;;;;;5016303;28;20403;-71
2022/09/14 00:29:58;;;;;;;0.83;0.83;;;18.90;99.90;;;;;;5015944;28;20407;-71
2022/09/14 00:32:23;;;;;;;0.60;0.40;;;18.90;99.90;;;;;;5016082;28;20969;-71
2022/09/14 00:34:49;;;;;;;0.70;0.70;;;18.90;99.90;;;;;;5016228;28;20226;-72
2022/09/14 00:37:15;;;;;;;0.50;0.50;;;18.80;99.90;;;;;;5015998;28;20183;-71
2022/09/14 00:39:40;;;;;;;0.80;0.60;;;18.70;99.90;;;;;;5015551;28;20192;-69
2022/09/14 00:42:06;;;;;;;0.70;0.70;;;18.60;99.90;;;;;;5015074;28;20196;-72
2022/09/14 00:44:32;;;;;;;1.10;0.80;;;18.70;99.90;;;;;;5016263;28;20192;-71
2022/09/14 00:47:01;;;;;;;0.90;0.90;;;18.70;99.90;;;;;;5015748;28;20407;-71
2022/09/14 00:49:36;;;;;;;0.73;0.73;;;18.70;99.90;;;;;;5015839;28;20184;-69
2022/09/14 00:52:17;;;;;;;0.40;0.40;;;18.70;99.90;;;;;;5015885;28;20823;-70
2022/09/14 00:54:48;;;;;;;0.97;0.97;;;18.80;99.90;;;;;;5015799;28;20398;-71
2022/09/14 00:57:15;;;;;;;1.67;1.10;;;18.90;99.90;;;;;;5015824;28;20403;-70
2022/09/14 00:59:42;;;;;;;0.80;0.80;;;18.90;99.90;;;;;;5015488;28;20431;-71
2022/09/14 01:02:10;;;;;;;0.50;0.50;;;18.90;99.90;;;;;;5015529;28;20439;-72
2022/09/14 01:04:36;;;;;;;1.37;0.97;;;19.00;99.90;;;;;;5015584;28;20404;-71
2022/09/14 01:07:12;;;;;;;0.63;0.63;;;19.00;99.90;;;;;;5015596;28;20912;-72
2022/09/14 01:10:00;;;;;;;0.80;0.80;;;19.10;99.90;;;;;;5015204;28;20924;-70
2022/09/14 01:12:52;;;;;;;0.40;0.40;;;19.20;99.90;;;;;;5015420;28;20398;-70
2022/09/14 01:15:32;;;;;;;0.93;0.93;;;19.30;99.90;;;;;;5015279;28;20428;-72
2022/09/14 01:18:08;;;;;;;1.30;0.93;;;19.30;99.90;;;;;;5013935;28;20964;-70
2022/09/14 01:20:36;;;;;;;0.50;0.50;;;19.20;99.90;;;;;;5015078;28;20408;-71
2022/09/14 01:23:03;;;;;;;0.60;0.60;;;;;;;;;;5013898;28;20505;-71
2022/09/14 01:25:37;;;;;;;0.50;0.50;;;19.30;99.90;;;;;;5015219;28;20399;-72
2022/09/14 01:28:21;;;;;;;1.60;0.70;;;19.20;99.90;;;;;;5015088;28;20420;-72
2022/09/14 01:30:50;;;;;;;1.67;0.80;;;19.20;99.90;;;;;;5015157;28;20397;-70
2022/09/14 01:33:23;;;;;;;1.10;1.07;;;19.20;99.90;;;;;;5013781;28;20416;-71
2022/09/14 01:35:57;;;;;;;0.60;0.60;;;19.20;99.90;;;;;;5015158;28;20405;-72
2022/09/14 01:38:34;;;;;;;1.67;1.10;;;19.20;99.90;;;;;;5014836;28;20437;-71
2022/09/14 01:41:05;;;;;;;0.40;0.40;;;19.10;99.90;;;;;;5014648;28;20403;-70
2022/09/14 01:43:33;;;;;;;0.47;0.47;;;19.10;99.90;;;;;;5015074;28;20452;-71
2022/09/14 01:46:07;;;;;;;0.87;0.87;;;19.10;99.90;;;;;;5014930;28;20768;-72
2022/09/14 01:48:57;;;;;;;1.27;1.17;;;19.10;99.90;;;;;;5014755;28;20765;-72
2022/09/14 01:51:30;;;;;;;0.50;0.50;;;19.10;99.90;;;;;;5014492;28;20402;-71
2022/09/14 01:54:02;;;;;;;0.63;0.63;;;19.10;99.90;;;;;;5014851;28;20406;-72
2022/09/14 01:56:37;;;;;;;1.47;1.37;;;19.00;99.90;;;;;;5014459;28;20443;-70
2022/09/14 01:59:21;;;;;;;0.70;0.70;;;19.00;99.90;;;;;;5014401;28;20507;-71
2022/09/14 02:01:55;;;;;;;0.60;0.60;;;19.00;99.90;;;;;;5014218;28;20410;-71
2022/09/14 02:04:39;;;;;;;0.70;0.70;;;19.00;99.90;;;;;;5014643;28;20487;-72
2022/09/14 02:07:06;;;;;;;0.63;0.63;;;19.00;99.90;;;;;;5014473;28;20398;-72
2022/09/14 02:09:32;;;;;;;0.70;0.70;;;;;;;;;;5014271;28;20429;-70
2022/09/14 02:11:59;;;;;;;0.50;0.50;;;19.00;99.90;;;;;;5014184;28;20407;-72
2022/09/14 02:14:26;;;;;;;1.23;0.90;;;19.00;99.90;;;;;;5014106;28;20434;-72
2022/09/14 02:16:52;;;;;;;0.47;0.47;;;19.00;99.90;;;;;;5014234;28;20441;-71
2022/09/14 02:19:18;;;;;;;1.00;0.77;;;19.00;99.90;;;;;;5012789;28;21012;-70
2022/09/14 02:21:44;;;;;;;0.77;0.70;;;19.00;99.90;;;;;;5013869;28;20938;-72
2022/09/14 02:24:11;;;;;;;0.90;0.90;;;18.90;99.90;;;;;;5014234;28;20399;-71
2022/09/14 02:26:38;;;;;;;0.70;0.70;;;18.90;99.90;;;;;;5013981;28;20417;-70
2022/09/14 02:29:04;;;;;;;1.10;1.10;;;18.90;99.90;;;;;;5014122;28;20423;-71
2022/09/14 02:31:49;;;;;;;0.63;0.63;;;18.90;99.90;;;;;;5013895;28;20398;-71
2022/09/14 02:34:34;;;;;;;0.50;0.50;;;18.90;99.90;;;;;;5014207;28;20435;-71
2022/09/14 02:37:36;;;;;;;0.80;0.80;;;18.90;99.90;;;;;;5014309;28;20546;-70
2022/09/14 02:40:29;;;;;;;0.80;0.80;;;18.90;99.90;;;;;;5013717;28;20404;-71
2022/09/14 02:43:13;;;;;;;1.60;1.10;;;18.90;99.90;;;;;;5013971;28;20450;-72
2022/09/14 02:45:47;;;;;;;1.03;0.70;;;19.00;99.90;;;;;;5013794;28;20486;-71
2022/09/14 02:48:17;;;;;;;1.43;1.23;;;18.90;99.90;;;;;;5013773;28;20418;-71
2022/09/14 02:50:50;;;;;;;0.50;0.50;;;19.00;99.90;;;;;;5013593;28;20395;-72
2022/09/14 02:53:29;;;;;;;2.00;1.33;;;19.00;99.90;;;;;;5013722;28;20403;-70
2022/09/14 02:56:01;;;;;;;0.40;0.40;;;19.00;99.90;;;;;;5013727;28;20407;-72
2022/09/14 02:58:38;;;;;;;1.20;0.97;;;19.00;99.90;;;;;;5013638;28;20441;-70
2022/09/14 03:01:06;;;;;;;0.50;0.50;;;19.00;99.90;;;;;;5013616;28;20408;-71
2022/09/14 03:03:32;;;;;;;0.67;0.67;;;19.00;99.90;;;;;;5013691;28;20489;-71
2022/09/14 03:05:58;;;;;;;0.50;0.50;;;19.00;99.90;;;;;;5016857;28;20437;-71
2022/09/14 03:08:25;;;;;;;1.20;1.10;;;19.00;99.90;;;;;;5016330;28;20983;-71
2022/09/14 03:10:51;;;;;;;0.80;0.80;;;19.10;99.90;;;;;;5017752;28;20394;-72
2022/09/14 03:13:16;;;;;;;0.63;0.63;;;19.10;99.90;;;;;;5017803;28;20428;-72
2022/09/14 03:15:42;;;;;;;0.70;0.70;;;19.20;99.90;;;;;;5017289;28;20251;-71
2022/09/14 03:18:08;;;;;;;1.20;0.70;;;19.20;99.90;;;;;;5017396;28;20194;-72
2022/09/14 03:20:34;;;;;;;1.00;1.00;;;19.20;99.90;;;;;;5017018;28;20221;-71
2022/09/14 03:23:01;;;;;;;4.63;1.60;;;19.30;99.90;;;;;;5017152;28;20460;-72
2022/09/14 03:25:27;;;;;;;0.60;0.60;;;19.10;99.90;;;;;;5017203;28;20437;-70
2022/09/14 03:27:55;;;;;;;0.60;0.60;;;19.20;99.90;;;;;;5017276;28;20430;-72
2022/09/14 03:30:22;;;;;;;0.63;0.63;;;19.20;99.90;;;;;;5017168;28;20499;-70
2022/09/14 03:32:48;;;;;;;0.97;0.93;;;19.30;99.90;;;;;;5017269;28;20904;-72
2022/09/14 03:35:14;;;;;;;0.70;0.70;;;19.30;99.90;;;;;;5017017;28;20419;-70
2022/09/14 03:37:42;;;;;;;0.50;0.50;;;19.60;99.90;;;;;;5017032;28;20491;-72
2022/09/14 03:40:09;;;;;;;0.97;0.97;;;19.30;99.90;;;;;;5017058;28;20408;-71
2022/09/14 03:42:35;;;;;;;0.60;0.60;;;19.30;99.90;;;;;;5017050;28;20537;-71
2022/09/14 03:45:01;;;;;;;0.80;0.57;;;19.30;99.90;;;;;;5017130;28;20437;-72
2022/09/14 03:47:27;;;;;;;0.70;0.70;;;19.40;99.90;;;;;;5017074;28;20411;-72
2022/09/14 03:49:53;;;;;;;0.60;0.60;;;19.30;99.90;;;;;;5016693;28;20399;-70
2022/09/14 03:52:19;;;;;;;1.23;0.87;;;19.20;99.90;;;;;;5017071;28;20171;-70
2022/09/14 03:54:45;;;;;;;0.90;0.83;;;19.00;99.90;;;;;;5016868;28;20897;-70
2022/09/14 03:57:10;;;;;;;0.60;0.60;;;19.00;99.90;;;;;;5016933;28;20172;-72
2022/09/14 03:59:36;;;;;;;0.60;0.60;;;19.20;99.90;;;;;;5016524;28;20200;-72
2022/09/14 04:02:02;;;;;;;0.90;0.90;;;19.20;99.90;;;;;;5016525;28;20227;-70
2022/09/14 04:04:28;;;;;;;1.10;1.10;;;19.20;99.90;;;;;;5016802;28;20559;-72
2022/09/14 04:06:54;;;;;;;0.87;0.87;;;19.30;99.90;;;;;;5016593;28;20396;-71
2022/09/14 04:09:20;;;;;;;0.70;0.67;;;19.30;99.90;;;;;;5016467;28;20488;-72
2022/09/14 04:11:46;;;;;;;0.90;0.90;;;19.30;99.90;;;;;;5015098;28;20167;-72
2022/09/14 04:14:12;;;;;;;2.47;1.53;;;19.30;99.90;;;;;;5016445;28;20450;-71
2022/09/14 04:16:38;;;;;;;0.70;0.70;;;19.20;99.90;;;;;;5015313;28;20816;-72
2022/09/14 04:19:04;;;;;;;1.60;1.40;;;19.20;99.90;;;;;;5016358;28;20945;-72
2022/09/14 04:21:30;;;;;;;0.70;0.70;;;19.20;99.90;;;;;;5016431;28;20440;-70
2022/09/14 04:23:57;;;;;;;0.80;0.80;;;19.00;99.90;;;;;;5016418;28;20458;-72
2022/09/14 04:26:27;;;;;;;0.60;0.60;;;19.10;99.90;;;;;;5016194;28;20415;-71
2022/09/14 04:28:53;;;;;;;0.70;0.70;;;19.00;99.90;;;;;;5016063;28;20444;-70
2022/09/14 04:31:19;;;;;;;0.50;0.50;;;19.00;99.90;;;;;;5015928;28;20491;-72
2022/09/14 04:33:47;;;;;;;0.60;0.60;;;18.90;99.90;;;;;;5016044;28;20495;-72
2022/09/14 04:36:15;;;;;;;0.67;0.67;;;18.80;99.90;;;;;;5016063;28;20168;-71
2022/09/14 04:38:42;;;;;;;0.50;0.50;;;18.80;99.90;;;;;;5015866;28;20429;-71
2022/09/14 04:41:14;;;;;;;0.73;0.73;;;18.80;99.90;;;;;;5015766;28;20916;-72
2022/09/14 04:43:41;;;;;;;0.30;0.30;;;18.90;99.90;;;;;;5015891;28;20547;-71
2022/09/14 04:46:13;;;;;;;0.63;0.63;;;19.10;99.90;;;;;;5015784;28;20432;-72
2022/09/14 04:48:39;;;;;;;0.40;0.40;;;19.00;99.90;;;;;;5014345;28;20928;-72
2022/09/14 04:51:16;;;;;;;0.60;0.60;;;19.30;99.90;;;;;;5015693;28;20407;-71
2022/09/14 04:53:43;;;;;;;1.23;1.13;;;19.10;99.90;;;;;;5015946;28;20408;-72
2022/09/14 04:56:10;;;;;;;1.90;1.07;;;19.10;99.90;;;;;;5015804;28;20398;-70
2022/09/14 04:58:40;;;;;;;0.40;0.40;;;19.10;99.90;;;;;;5015323;28;20439;-72
2022/09/14 05:01:11;;;;;;;1.33;0.93;;;19.10;99.90;;;;;;5015346;28;20403;-72
2022/09/14 05:03:38;;;;;;;0.53;0.53;;;19.00;99.90;;;;;;5015707;28;20452;-72
2022/09/14 05:06:06;;;;;;;0.90;0.70;;;19.00;99.90;;;;;;5015422;28;20406;-70
2022/09/14 05:08:32;;;;;;;0.60;0.60;;;18.90;99.90;;;;;;5015405;28;20740;-72
2022/09/14 05:10:58;;;;;;;0.50;0.50;;;18.90;99.90;;;;;;5015104;28;20403;-70
2022/09/14 05:13:24;;;;;;;0.93;0.93;;;18.80;99.90;;;;;;5015519;28;20481;-73
2022/09/14 05:15:50;;;;;;;1.30;1.20;;;18.90;99.90;;;;;;5015256;28;20465;-70
2022/09/14 05:18:17;;;;;;;0.50;0.50;;;18.80;99.90;;;;;;5015106;28;20804;-72
2022/09/14 05:20:43;;;;;;;2.17;1.80;;;18.80;99.90;;;;;;5015128;28;20412;-71
2022/09/14 05:23:09;;;;;;;0.50;0.50;;;18.70;99.90;;;;;;5015183;28;20791;-70
2022/09/14 05:25:35;;;;;;;0.60;0.60;;;18.70;99.90;;;;;;5015246;28;20271;-72
2022/09/14 05:28:01;;;;;;;0.77;0.77;;;18.70;99.90;;;;;;5012298;28;20581;-72
2022/09/14 05:30:27;;;;;;;1.00;0.87;;;18.80;99.90;;;;;;5012237;28;20171;-73
2022/09/14 05:32:52;;;;;;;0.50;0.50;;;18.90;99.90;;;;;;5013141;28;20500;-70
2022/09/14 05:35:18;;;;;;;0.80;0.80;;;;;;;;;;5014287;28;20178;-73
2022/09/14 05:37:45;;;;;;;0.90;0.90;;;18.80;99.90;;;;;;5014413;28;20667;-72
2022/09/14 05:40:11;;;;;;;0.80;0.80;;;19.00;99.90;;;;;;5014848;28;20493;-72
2022/09/14 05:42:36;;;;;;;1.00;1.00;;;19.00;99.90;;;;;;5014954;28;20938;-70
2022/09/14 05:45:02;;;;;;;0.67;0.67;;;19.00;99.90;;;;;;5014785;28;20179;-72
2022/09/14 05:47:29;;;;;;;0.50;0.50;;;18.70;99.90;;;;;;5014865;28;20197;-71
2022/09/14 05:49:55;;;;;;;0.80;0.80;;;19.10;99.90;;;;;;5014517;28;20492;-72
2022/09/14 05:52:21;;;;;;;0.80;0.80;;;19.10;99.90;;;;;;5014543;28;20418;-70
2022/09/14 05:54:47;;;;;;;0.70;0.67;;;19.20;99.90;;;;;;5014747;28;20914;-70
2022/09/14 05:57:12;;;;;;;1.37;1.30;;;19.20;99.90;;;;;;5014531;28;20405;-70
2022/09/14 05:59:38;;;;;;;0.90;0.90;;;19.20;99.90;;;;;;5014231;28;20198;-71
2022/09/14 06:02:03;;;;;;;0.80;0.80;;;19.30;99.90;;;;;;5014592;28;20195;-71
2022/09/14 06:04:29;;;;;;;0.50;0.50;;;19.40;99.90;;;;;;5014735;28;20232;-69
2022/09/14 06:06:55;;;;;;;0.70;0.70;;;19.50;99.90;;;;;;5014285;28;20179;-71
2022/09/14 06:09:21;;;;;;;0.70;0.70;;;19.50;99.90;;;;;;5014283;28;20190;-70
2022/09/14 06:11:46;;;;;;;0.40;0.40;;;19.60;99.90;;;;;;5014147;28;20200;-70
2022/09/14 06:14:12;;;;;;;0.60;0.60;;;;;;;;;;5014166;28;20424;-71
2022/09/14 06:16:38;;;;;;;0.70;0.70;;;19.80;99.90;;;;;;5014325;28;20534;-70
2022/09/14 06:19:04;;;;;;;1.03;0.93;;;19.80;99.90;;;;;;5012879;28;20443;-72
2022/09/14 06:21:33;;;;;;;0.57;0.57;;;19.90;99.90;;;;;;5013960;28;20174;-71
2022/09/14 06:23:59;;;;;;;1.13;0.83;;;19.90;99.90;;;;;;5014196;28;20210;-71
2022/09/14 06:26:25;;;;;;;1.50;1.50;;;19.90;99.90;;;;;;5014107;28;20815;-70
2022/09/14 06:28:52;;;;;;;0.83;0.83;;;;;;;;;;5014326;28;20277;-71
2022/09/14 06:31:21;;;;;;;0.57;0.57;;;20.10;99.90;;;;;;5013993;28;20402;-71
2022/09/14 06:33:48;;;;;;;0.67;0.67;;;20.20;99.90;;;;;;5014143;28;20422;-72
2022/09/14 06:36:20;;;;;;;0.30;0.30;;;20.20;99.90;;;;;;5014150;28;20506;-71
2022/09/14 06:38:48;;;;;;;0.60;0.60;;;20.30;99.90;;;;;;5013322;28;20433;-70
2022/09/14 06:41:19;;;;;;;1.13;1.03;;;20.50;99.90;;;;;;5013494;28;20413;-72
2022/09/14 06:43:45;;;;;;;0.53;0.53;;;20.50;99.90;;;;;;5014044;28;20490;-72
2022/09/14 06:46:22;;;;;;;0.80;0.80;;;20.60;99.90;;;;;;5013959;28;20472;-71
2022/09/14 06:48:55;;;;;;;0.70;0.70;;;20.70;99.90;;;;;;5013891;28;20433;-72
2022/09/14 06:51:26;;;;;;;0.60;0.60;;;20.70;99.90;;;;;;5013599;28;20410;-71
2022/09/14 06:53:54;;;;;;;0.60;0.60;;;20.70;99.90;;;;;;5013893;28;20446;-72
2022/09/14 06:56:20;;;;;;;1.27;1.17;;;20.70;99.90;;;;;;5013823;28;20407;-71
2022/09/14 06:58:46;;;;;;;1.00;0.80;;;20.70;99.90;;;;;;5013634;28;20441;-71
2022/09/14 07:01:13;;;;;;;0.73;0.73;;;20.90;99.90;;;;;;5013482;28;20415;-71
2022/09/14 07:03:42;;;;;;;0.60;0.60;;;20.90;99.90;;;;;;5013744;28;20461;-71
2022/09/14 07:06:10;;;;;;;0.50;0.50;;;21.10;99.90;;;;;;5013864;28;20872;-71
2022/09/14 07:08:37;;;;;;;0.50;0.50;;;21.30;99.90;;;;;;5013627;28;20581;-72
2022/09/14 07:11:04;;;;;;;0.70;0.60;;;21.60;99.90;;;;;;5013583;28;20411;-71
2022/09/14 07:13:31;;;;;;;0.50;0.50;;;21.80;99.90;;;;;;5013755;28;20801;-72
2022/09/14 07:15:56;;;;;;;0.50;0.50;;;21.90;99.90;;;;;;5013608;28;20428;-71
2022/09/14 07:18:27;;;;;;;0.60;0.60;;;22.10;99.90;;;;;;5013455;28;20434;-72
2022/09/14 07:20:54;;;;;;;0.60;0.57;;;22.40;99.90;;;;;;5013393;28;20627;-71
2022/09/14 07:23:20;;;;;;;0.50;0.50;;;22.70;99.90;;;;;;5013590;28;20464;-71
2022/09/14 07:25:46;;;;;;;0.53;0.53;;;22.80;99.90;;;;;;5013350;28;20413;-71
2022/09/14 07:28:13;;;;;;;0.50;0.50;;;23.10;99.90;;;;;;5013409;28;20469;-72
2022/09/14 07:30:40;;;;;;;0.60;0.60;;;23.20;99.90;;;;;;5013458;28;20809;-71
2022/09/14 07:33:05;;;;;;;0.47;0.47;;;23.30;99.90;;;;;;5013617;28;20171;-71
2022/09/14 07:35:32;;;;;;;0.50;0.50;;;23.50;99.90;;;;;;5013407;28;20484;-73
2022/09/14 07:37:58;;;;;;;0.70;0.50;;;23.50;99.90;;;;;;5013389;28;20286;-73
2022/09/14 07:40:23;;;;;;;0.30;0.30;;;23.70;99.90;;;;;;5013277;28;20442;-71
2022/09/14 07:42:50;;;;;;;0.40;0.40;;;24.00;99.90;;;;;;5013448;28;20206;-72
2022/09/14 07:45:16;;;;;;;0.70;0.70;;;24.30;99.60;;;;;;5013424;28;20170;-71
2022/09/14 07:47:42;;;;;;;0.40;0.40;;;24.80;99.90;;;;;;5013130;28;20950;-71
2022/09/14 07:50:08;;;;;;;0.87;0.87;;;25.10;98.10;;;;;;5013101;28;20179;-72
2022/09/14 07:52:34;;;;;;;0.97;0.97;;;;;;;;;;5016996;28;20182;-71
2022/09/14 07:54:59;;;;;;;0.67;0.67;;;25.20;95.70;;;;;;5017050;28;20385;-71
2022/09/14 07:57:26;;;;;;;0.50;0.50;;;24.80;96.10;;;;;;5016998;28;20915;-72
2022/09/14 07:59:52;;;;;;;0.57;0.50;;;24.50;96.00;;;;;;5016469;28;20631;-72
2022/09/14 08:02:17;;;;;;;0.50;0.50;;;24.40;96.40;;;;;;5016640;28;20576;-73
2022/09/14 08:04:43;;;;;;;0.50;0.50;;;24.30;99.90;;;;;;5017016;28;20630;-71
2022/09/14 08:07:09;;;;;;;0.57;0.57;;;24.40;96.30;;;;;;5016561;28;20305;-70
2022/09/14 08:09:34;;;;;;;0.40;0.40;;;24.60;94.50;;;;;;5016483;28;20194;-70
2022/09/14 08:12:00;;;;;;;0.50;0.40;;;24.60;93.60;;;;;;5016751;28;20167;-70
2022/09/14 08:14:26;;;;;;;0.50;0.50;;;24.40;92.40;;;;;;5016487;28;20190;-70
2022/09/14 08:16:51;;;;;;;0.40;0.40;;;24.00;94.60;;;;;;5016445;28;20202;-70
2022/09/14 08:19:19;;;;;;;0.83;0.70;;;23.70;95.10;;;;;;5014302;28;20672;-70
2022/09/14 08:21:47;;;;;;;0.80;0.50;;;23.40;95.90;;;;;;5014663;28;20187;-70
2022/09/14 08:24:18;;;;;;;0.40;0.40;;;23.10;96.50;;;;;;5015512;28;20875;-69
2022/09/14 08:26:44;;;;;;;0.60;0.60;;;23.00;97.90;;;;;;5014215;28;20418;-69
2022/09/14 08:29:11;;;;;;;0.50;0.50;;;22.90;97.90;;;;;;5015888;28;20512;-70
2022/09/14 08:31:38;;;;;;;0.60;0.60;;;22.50;99.90;;;;;;5015079;28;20503;-70
2022/09/14 08:34:05;;;;;;;0.60;0.60;;;22.70;98.00;;;;;;5013627;28;20921;-70
2022/09/14 08:36:34;;;;;;;0.30;0.30;;;22.70;98.00;;;;;;5016507;28;20441;-70
2022/09/14 08:39:00;;;;;;;0.50;0.40;;;22.70;99.90;;;;;;5014099;28;20425;-70
2022/09/14 08:41:37;;;;;;;0.60;0.60;;;22.50;97.80;;;;;;5015091;28;20831;-70
2022/09/14 08:44:20;;;;;;;1.07;1.07;;;22.40;97.60;;;;;;5015840;28;20456;-70
2022/09/14 08:47:05;;;;;;;0.50;0.50;;;22.30;97.90;;;;;;5016039;28;20413;-70
2022/09/14 08:49:55;;;;;;;0.40;0.40;;;22.20;97.90;;;;;;5015542;28;20436;-70
2022/09/14 08:52:29;;;;;;;1.20;0.87;;;22.10;98.80;;;;;;5015815;28;20417;-73
2022/09/14 08:55:20;;;;;;;0.30;0.30;;;22.00;98.60;;;;;;5015973;28;20432;-72
2022/09/14 08:58:04;;;;;;;0.90;0.90;;;21.80;99.90;;;;;;5015626;28;20475;-70
2022/09/14 09:01:01;;;;;;;0.57;0.57;;;22.00;99.90;;;;;;5015834;28;20415;-70
2022/09/14 09:03:42;;;;;;;0.40;0.40;;;22.00;99.90;;;;;;4977848;28;20545;-70
2022/09/14 09:06:20;;;;;;;0.40;0.40;;;21.70;99.90;;;;;;5015454;28;20416;-70
2022/09/14 09:09:08;;;;;;;0.50;0.40;;;21.50;99.90;;;;;;5014136;28;20511;-70
2022/09/14 09:11:40;;;;;;;0.40;0.40;;;21.40;99.90;;;;;;5013429;28;20470;-72
2022/09/14 09:14:18;;;;;;;0.60;0.60;;;21.40;99.90;;;;;;5014481;28;20802;-72
2022/09/14 09:16:48;;;;;;;2.53;1.27;;;21.40;99.90;;;;;;5012584;28;20406;-73
2022/09/14 09:19:22;;;;;;;0.60;0.60;;;21.40;99.90;;;;;;5013451;28;20431;-72
2022/09/14 09:21:49;;;;;;;0.67;0.67;;;21.40;99.90;;;;;;5013986;28;20409;-72
2022/09/14 09:24:33;;;;;;;0.93;0.87;;;21.50;99.90;;;;;;5014087;28;20422;-70
2022/09/14 09:27:00;;;;;;;0.90;0.90;;;21.40;99.90;;;;;;5013704;28;20411;-70
2022/09/14 09:29:25;;;;;;;1.63;0.70;;;21.30;99.90;;;;;;5014202;28;20423;-70
2022/09/14 09:31:53;;;;;;;1.07;0.97;;;21.40;99.90;;;;;;5014855;28;20537;-72
2022/09/14 09:34:26;;;;;;;1.47;0.60;;;21.40;99.90;;;;;;5015038;28;20169;-71
2022/09/14 09:36:54;;;;;;;0.60;0.60;;;21.50;99.90;;;;;;5015027;28;20403;-72
2022/09/14 09:39:22;;;;;;;0.63;0.63;;;21.60;99.90;;;;;;5014991;28;20427;-71
2022/09/14 09:42:06;;;;;;;0.73;0.60;;;21.70;99.90;;;;;;5014758;28;20440;-70
2022/09/14 09:44:52;;;;;;;0.57;0.57;;;22.10;99.90;;;;;;5015032;28;20429;-72
2022/09/14 09:47:36;;;;;;;1.17;1.10;;;22.50;99.90;;;;;;5015247;28;20815;-72
2022/09/14 09:50:15;;;;;;;0.67;0.67;;;23.10;99.90;;;;;;5014542;28;20405;-70
2022/09/14 09:52:56;;;;;;;1.10;1.10;;;23.90;99.90;;;;;;5014947;28;20410;-71
2022/09/14 09:55:25;;;;;;;0.60;0.60;;;24.70;99.90;;;;;;5014882;28;20415;-71
2022/09/14 09:57:53;;;;;;;1.43;0.87;;;25.10;99.90;;;;;;5014759;28;20434;-72
2022/09/14 10:00:23;;;;;;;0.47;0.47;;;25.20;99.30;;;;;;5014548;28;20387;-71
2022/09/14 10:02:49;;;;;;;0.40;0.40;;;24.90;99.00;;;;;;5014353;28;20436;-70
2022/09/14 10:05:22;;;;;;;2.60;0.80;;;24.70;99.50;;;;;;5014485;28;20809;-72
2022/09/14 10:07:47;;;;;;;0.50;0.50;;;24.80;99.90;;;;;;5014304;28;20384;-70
2022/09/14 10:10:15;;;;;;;0.50;0.40;;;25.00;99.90;;;;;;5012696;28;20392;-70
2022/09/14 10:12:50;;;;;;;0.50;0.40;;;25.10;99.90;;;;;;5011893;28;20704;-71
2022/09/14 10:15:29;;;;;;;0.50;0.50;;;25.70;99.20;;;;;;5013409;28;20440;-72
2022/09/14 10:17:54;;;;;;;0.60;0.43;;;26.50;97.70;;;;;;5011719;28;20444;-70
2022/09/14 10:20:23;;;;;;;0.60;0.60;;;26.90;95.80;;;;;;5013707;28;20450;-71
2022/09/14 10:22:49;;;;;;;0.83;0.73;;;27.20;95.20;;;;;;5014357;28;20201;-72
2022/09/14 10:25:18;;;;;;;0.60;0.60;;;27.30;94.30;;;;;;5014379;28;20399;-71
2022/09/14 10:27:47;;;;;;;0.70;0.70;;;26.60;99.90;;;;;;5014201;28;20445;-70
2022/09/14 10:30:17;;;;;;;0.63;0.63;;;26.40;95.90;;;;;;5014154;28;20399;-73
2022/09/14 10:33:04;;;;;;;0.40;0.40;;;26.40;95.60;;;;;;5014211;28;20405;-71
2022/09/14 10:35:47;;;;;;;0.50;0.50;;;26.10;95.90;;;;;;5014273;28;20402;-71
2022/09/14 10:38:54;;;;;;;0.50;0.50;;;25.90;97.20;;;;;;5014101;28;20484;-73
2022/09/14 10:41:54;;;;;;;1.03;1.03;;;25.90;97.50;;;;;;5013850;28;20775;-71
2022/09/14 10:44:52;;;;;;;0.63;0.50;;;26.30;97.50;;;;;;5014005;28;20420;-72
2022/09/14 10:47:25;;;;;;;0.60;0.60;;;26.80;95.90;;;;;;5013613;28;20430;-71
2022/09/14 10:50:28;;;;;;;2.87;1.10;;;27.20;95.90;;;;;;5012463;28;20435;-70
2022/09/14 10:53:32;;;;;;;0.73;0.73;;;27.20;96.30;;;;;;5012147;28;20966;-71
2022/09/14 10:56:22;;;;;;;0.60;0.60;;;26.90;94.10;;;;;;5013896;28;20409;-71
2022/09/14 10:59:03;;;;;;;0.37;0.37;;;26.40;95.60;;;;;;5013922;28;20397;-72
2022/09/14 11:01:32;;;;;;;0.50;0.43;;;26.30;95.50;;;;;;5013589;28;20431;-70
2022/09/14 11:04:32;;;;;;;0.50;0.50;;;26.50;96.40;;;;;;5013812;28;20450;-71
2022/09/14 11:07:17;;;;;;;0.50;0.50;;;26.70;96.40;;;;;;5013823;28;20485;-71
2022/09/14 11:09:56;;;;;;;1.10;0.67;;;26.80;94.80;;;;;;5013637;28;20421;-72
2022/09/14 11:12:24;;;;;;;0.60;0.60;;;26.70;95.50;;;;;;5013779;28;20416;-72
2022/09/14 11:14:56;;;;;;;0.83;0.70;;;26.60;94.40;;;;;;5013549;28;20426;-71
2022/09/14 11:17:21;;;;;;;1.80;0.70;;;26.50;94.40;;;;;;5013671;28;20402;-71
2022/09/14 11:19:47;;;;;;;0.50;0.50;;;26.30;94.80;;;;;;5013435;28;20414;-70
2022/09/14 11:22:33;;;;;;;0.40;0.40;;;26.40;94.70;;;;;;5013359;28;20274;-72
2022/09/14 11:25:13;;;;;;;0.50;0.50;;;26.40;95.10;;;;;;5013609;28;20168;-73
2022/09/14 11:27:49;;;;;;;0.40;0.40;;;25.90;99.90;;;;;;5017469;28;20742;-71
2022/09/14 11:30:21;;;;;;;1.07;0.40;;;26.20;94.70;;;;;;5017555;28;20492;-72
2022/09/14 11:33:06;;;;;;;0.40;0.40;;;26.30;94.30;;;;;;5017511;28;20402;-72
2022/09/14 11:35:42;;;;;;;0.40;0.40;;;26.40;95.20;;;;;;5017345;28;20456;-72
2022/09/14 11:38:10;;;;;;;0.50;0.50;;;26.50;93.20;;;;;;5017197;28;20434;-72
2022/09/14 11:40:43;;;;;;;0.73;0.73;;;26.80;94.70;;;;;;5017013;28;20829;-71
2022/09/14 11:43:23;;;;;;;0.40;0.40;;;26.80;93.70;;;;;;5017052;28;20854;-71
2022/09/14 11:46:06;;;;;;;0.40;0.40;;;26.70;92.40;;;;;;5017174;28;20398;-73
2022/09/14 11:48:55;;;;;;;0.40;0.40;;;26.60;92.00;;;;;;5017186;28;20862;-72
2022/09/14 11:51:27;;;;;;;0.30;0.30;;;26.50;92.90;;;;;;5016946;28;20419;-73
2022/09/14 11:53:53;;;;;;;0.50;0.50;;;26.40;93.60;;;;;;5017128;28;20801;-70
2022/09/14 11:56:26;;;;;;;0.50;0.50;;;26.30;95.40;;;;;;5017191;28;20406;-72
2022/09/14 11:59:03;;;;;;;0.90;0.60;;;26.10;94.20;;;;;;5016966;28;20434;-72
2022/09/14 12:01:34;;;;;;;0.63;0.63;;;26.00;94.30;;;;;;5016636;28;20398;-72
2022/09/14 12:03:59;;;;;;;0.80;0.40;;;26.00;92.10;;;;;;5016675;28;20516;-71
2022/09/14 12:06:47;;;;;;;0.40;0.40;;;25.90;93.50;;;;;;5016722;28;20385;-74
2022/09/14 12:09:16;;;;;;;0.60;0.50;;;25.90;93.20;;;;;;5016691;28;20262;-72
2022/09/14 12:11:48;;;;;;;0.40;0.40;;;25.90;94.00;;;;;;5016603;28;20421;-73
2022/09/14 12:14:20;;;;;;;0.53;0.53;;;26.00;93.80;;;;;;5015115;28;20930;-71
2022/09/14 12:17:22;;;;;;;0.40;0.40;;;25.60;93.10;;;;;;5016553;28;20406;-71
2022/09/14 12:19:51;;;;;;;0.30;0.30;;;25.50;93.40;;;;;;4936669;29;20500;-72
2022/09/14 12:22:37;;;;;;;0.40;0.40;;;25.40;93.10;;;;;;5001999;28;20532;-73
2022/09/14 12:25:04;;;;;;;0.60;0.60;;;25.40;93.80;;;;;;5016457;28;20730;-70
2022/09/14 12:27:34;;;;;;;0.60;0.60;;;25.20;99.90;;;;;;5016368;28;20438;-71
2022/09/14 12:29:59;;;;;;;0.30;0.30;;;25.20;93.40;;;;;;5016159;28;20393;-71
2022/09/14 12:32:47;;;;;;;0.57;0.57;;;24.90;93.90;;;;;;5016354;28;20415;-70
2022/09/14 12:35:42;;;;;;;0.40;0.40;;;24.70;94.20;;;;;;5016203;28;20205;-71
2022/09/14 12:38:30;;;;;;;0.83;0.83;;;24.40;95.30;;;;;;5013743;28;20801;-72
2022/09/14 12:41:09;;;;;;;0.50;0.40;;;24.30;94.40;;;;;;5015571;28;20385;-71
2022/09/14 12:43:34;;;;;;;0.40;0.40;;;24.10;94.70;;;;;;5015755;28;20450;-73
2022/09/14 12:46:19;;;;;;;0.50;0.40;;;23.90;95.30;;;;;;5014737;28;20426;-72
2022/09/14 12:48:45;;;;;;;0.40;0.40;;;23.80;95.10;;;;;;5015970;28;20653;-71
2022/09/14 12:51:36;;;;;;;0.30;0.30;;;23.70;95.80;;;;;;5015674;28;20455;-72
2022/09/14 12:54:18;;;;;;;0.40;0.40;;;23.60;95.20;;;;;;5015708;28;20182;-72
2022/09/14 12:57:18;;;;;;;0.37;0.37;;;23.50;94.80;;;;;;5015877;28;20410;-73
2022/09/14 12:59:50;;;;;;;0.30;0.30;;;23.30;94.80;;;;;;5015573;28;20480;-70
2022/09/14 13:02:42;;;;;;;0.40;0.40;;;23.10;96.20;;;;;;5015801;28;20446;-72
2022/09/14 13:05:14;;;;;;;1.40;0.67;;;23.00;95.50;;;;;;5015717;28;20399;-72
2022/09/14 13:07:41;;;;;;;0.50;0.50;;;22.90;99.90;;;;;;5015628;28;20481;-72
2022/09/14 13:10:15;;;;;;;0.40;0.40;;;22.90;95.50;;;;;;5015232;28;20410;-72